Time;durP1;ratioP1;P1;durP2;ratioP2;P2;SDS_P1;SDS_P2;PMS_P1;PMS_P2;Temp;Humidity;BMP_temperature;BMP_pressure;BME280_temperature;BME280_humidity;BME280_pressure;Samples;Min_cycle;Max_cycle;Signal;HPM_P1;HPM_P2
2022/03/19 00:01:26;;;;;;;;;9.67;9.00;;;;;;;;5060497;28;45296;-75
2022/03/19 00:03:52;;;;;;;;;7.67;7.67;;;;;;;;5042286;28;45348;-75
2022/03/19 00:06:17;;;;;;;;;8.00;8.00;;;;;;;;5060291;28;45550;-75
2022/03/19 00:08:42;;;;;;;;;9.67;9.00;;;;;;;;5060089;28;45350;-75
2022/03/19 00:11:08;;;;;;;;;8.67;7.67;;;;;;;;5043541;28;45272;-75
2022/03/19 00:13:33;;;;;;;;;12.67;11.00;;;;;;;;5039796;28;45320;-75
2022/03/19 00:15:58;;;;;;;;;9.00;9.00;;;;;;;;5010121;28;46703;-75
2022/03/19 00:18:24;;;;;;;;;11.00;10.00;;;;;;;;5019888;28;46241;-76
2022/03/19 00:20:50;;;;;;;;;9.00;8.67;;;;;;;;5002226;28;45349;-75
2022/03/19 00:23:15;;;;;;;;;8.00;7.33;;;;;;;;5019837;28;45309;-75
2022/03/19 00:25:40;;;;;;;;;8.00;7.00;;;;;;;;5019954;28;45464;-75
2022/03/19 00:28:07;;;;;;;;;10.00;9.00;;;;;;;;5019403;28;46436;-75
2022/03/19 00:30:33;;;;;;;;;11.00;11.00;;;;;;;;5019328;28;45334;-75
2022/03/19 00:32:58;;;;;;;;;9.67;9.67;;;;;;;;5019787;28;45280;-75
2022/03/19 00:35:23;;;;;;;;;13.00;10.33;;;;;;;;5002013;28;45908;-75
2022/03/19 00:37:50;;;;;;;;;10.00;10.00;;;;;;;;5019151;28;45201;-75
2022/03/19 00:40:17;;;;;;;;;11.67;11.33;;;;;;;;5019792;28;45277;-75
2022/03/19 00:42:43;;;;;;;;;8.33;7.67;;;;;;;;5019581;28;45360;-75
2022/03/19 00:45:09;;;;;;;;;9.33;9.33;;;;;;;;5019406;28;45511;-75
2022/03/19 00:47:35;;;;;;;;;10.67;10.67;;;;;;;;5019767;28;45325;-75
2022/03/19 00:50:00;;;;;;;;;17.33;16.00;;;;;;;;5019552;28;45377;-75
2022/03/19 00:52:25;;;;;;;;;9.33;8.67;;;;;;;;5024158;28;45249;-74
2022/03/19 00:54:51;;;;;;;;;9.67;8.33;;;;;;;;5008364;28;47025;-75
2022/03/19 00:57:16;;;;;;;;;11.67;10.00;;;;;;;;5008112;28;47314;-75
2022/03/19 00:59:41;;;;;;;;;8.33;7.67;;;;;;;;5026022;28;45254;-75
2022/03/19 01:02:07;;;;;;;;;7.00;7.00;;;;;;;;5026115;28;45475;-75
2022/03/19 01:04:32;;;;;;;;;8.33;7.67;;;;;;;;5025901;28;45310;-75
2022/03/19 01:06:57;;;;;;;;;9.67;9.33;;;;;;;;5025918;28;45977;-75
2022/03/19 01:09:22;;;;;;;;;7.00;6.00;;;;;;;;5025835;28;45834;-75
2022/03/19 01:11:48;;;;;;;;;7.00;5.00;;;;;;;;5026308;28;45250;-75
2022/03/19 01:14:13;;;;;;;;;4.00;3.00;;;;;;;;5025847;28;45232;-75
2022/03/19 01:16:38;;;;;;;;;5.00;5.00;;;;;;;;5042867;28;45329;-75
2022/03/19 01:19:03;;;;;;;;;6.00;5.00;;;;;;;;5046056;28;45220;-75
2022/03/19 01:21:29;;;;;;;;;10.67;8.00;;;;;;;;5045849;28;45416;-75
2022/03/19 01:23:54;;;;;;;;;5.33;5.33;;;;;;;;5045755;28;45340;-77
2022/03/19 01:26:19;;;;;;;;;7.00;7.00;;;;;;;;5045816;28;45209;-75
2022/03/19 01:28:44;;;;;;;;;5.00;5.00;;;;;;;;5045332;28;45304;-75
2022/03/19 01:31:11;;;;;;;;;7.00;6.00;;;;;;;;5045960;28;45211;-75
2022/03/19 01:33:36;;;;;;;;;7.33;7.33;;;;;;;;5045379;28;45372;-75
2022/03/19 01:36:01;;;;;;;;;6.67;6.67;;;;;;;;5045582;28;45268;-75
2022/03/19 01:38:28;;;;;;;;;7.00;5.67;;;;;;;;5027824;28;45393;-75
2022/03/19 01:40:53;;;;;;;;;10.67;9.67;;;;;;;;5045667;28;45289;-75
2022/03/19 01:43:18;;;;;;;;;10.00;9.33;;;;;;;;5027396;28;45296;-75
2022/03/19 01:45:43;;;;;;;;;12.00;9.67;;;;;;;;5045268;28;46339;-75
2022/03/19 01:48:08;;;;;;;;;11.00;11.00;;;;;;;;5045406;28;45280;-75
2022/03/19 01:50:34;;;;;;;;;7.33;7.00;;;;;;;;5045592;28;45302;-75
2022/03/19 01:52:59;;;;;;;;;6.33;6.33;;;;;;;;5045138;28;45296;-75
2022/03/19 01:55:25;;;;;;;;;5.00;4.67;;;;;;;;5045438;28;45275;-75
2022/03/19 01:57:52;;;;;;;;;5.00;5.00;;;;;;;;5045211;28;45161;-75
2022/03/19 02:00:19;;;;;;;;;5.33;5.00;;;;;;;;5045455;28;45287;-75
2022/03/19 02:02:45;;;;;;;;;5.67;5.67;;;;;;;;5043648;28;45459;-75
2022/03/19 02:05:14;;;;;;;;;6.00;5.00;;;;;;;;5041459;28;46173;-75
2022/03/19 02:07:39;;;;;;;;;5.00;4.67;;;;;;;;5023905;28;45495;-75
2022/03/19 02:10:04;;;;;;;;;7.67;7.67;;;;;;;;5041866;28;45301;-75
2022/03/19 02:12:30;;;;;;;;;9.00;8.67;;;;;;;;5041522;28;45607;-75
2022/03/19 02:14:57;;;;;;;;;6.33;6.33;;;;;;;;5023788;28;47392;-75
2022/03/19 02:17:24;;;;;;;;;8.67;8.33;;;;;;;;5024037;28;45290;-75
2022/03/19 02:19:53;;;;;;;;;10.00;9.67;;;;;;;;5023871;28;45323;-75
2022/03/19 02:22:20;;;;;;;;;10.33;10.33;;;;;;;;5040984;28;45383;-75
2022/03/19 02:27:30;;;;;;;;;6.00;5.00;;;;;;;;5041113;28;45317;-75
2022/03/19 02:29:56;;;;;;;;;11.67;11.00;;;;;;;;5041752;28;45317;-75
2022/03/19 02:32:22;;;;;;;;;7.33;7.33;;;;;;;;5041653;28;45245;-75
2022/03/19 02:34:47;;;;;;;;;7.00;7.00;;;;;;;;5023546;28;47011;-75
2022/03/19 02:37:12;;;;;;;;;7.00;6.00;;;;;;;;5041434;28;45260;-75
2022/03/19 02:39:37;;;;;;;;;8.33;6.00;;;;;;;;5023859;28;45252;-75
2022/03/19 02:42:04;;;;;;;;;5.00;5.00;;;;;;;;5023363;28;46996;-75
2022/03/19 02:44:30;;;;;;;;;6.00;5.00;;;;;;;;5041379;28;46474;-75
2022/03/19 02:46:57;;;;;;;;;4.33;4.33;;;;;;;;5023307;28;45248;-75
2022/03/19 02:49:23;;;;;;;;;7.33;5.67;;;;;;;;5041446;28;45316;-75
2022/03/19 02:51:50;;;;;;;;;5.67;5.67;;;;;;;;5023085;28;45365;-75
2022/03/19 02:54:16;;;;;;;;;5.00;4.67;;;;;;;;5041233;28;46411;-74
2022/03/19 02:56:42;;;;;;;;;4.67;4.67;;;;;;;;5041296;28;45230;-74
2022/03/19 02:59:19;;;;;;;;;4.00;3.00;;;;;;;;5023354;28;45322;-75
2022/03/19 03:01:45;;;;;;;;;7.33;7.00;;;;;;;;5041233;28;45303;-75
2022/03/19 03:04:11;;;;;;;;;4.67;3.67;;;;;;;;5040840;28;45311;-75
2022/03/19 03:06:39;;;;;;;;;5.67;5.67;;;;;;;;5040866;28;45390;-75
2022/03/19 03:09:04;;;;;;;;;6.67;6.00;;;;;;;;5041144;28;45319;-75
2022/03/19 03:11:30;;;;;;;;;6.67;5.00;;;;;;;;5040564;28;45449;-75
2022/03/19 03:13:55;;;;;;;;;6.33;6.33;;;;;;;;5040748;28;45281;-75
2022/03/19 03:16:20;;;;;;;;;5.00;5.00;;;;;;;;5025666;28;45305;-75
2022/03/19 03:18:46;;;;;;;;;9.00;8.00;;;;;;;;5003316;28;45371;-75
2022/03/19 03:21:11;;;;;;;;;10.67;8.33;;;;;;;;5020933;28;45230;-75
2022/03/19 03:23:37;;;;;;;;;7.00;5.00;;;;;;;;5020708;28;45319;-75
2022/03/19 03:26:02;;;;;;;;;6.33;6.33;;;;;;;;5020872;28;45151;-74
2022/03/19 03:28:27;;;;;;;;;9.25;9.00;;;;;;;;5002775;28;45237;-74
2022/03/19 03:30:53;;;;;;;;;5.67;4.00;;;;;;;;5002896;28;47255;-75
2022/03/19 03:33:18;;;;;;;;;10.75;8.50;;;;;;;;5020549;28;45577;-75
2022/03/19 03:35:43;;;;;;;;;8.00;7.33;;;;;;;;5020944;28;45245;-75
2022/03/19 03:38:08;;;;;;;;;9.33;9.33;;;;;;;;5020756;28;45270;-75
2022/03/19 03:40:34;;;;;;;;;8.33;8.00;;;;;;;;5020651;28;45445;-75
2022/03/19 03:42:59;;;;;;;;;10.33;8.67;;;;;;;;5020376;28;46169;-74
2022/03/19 03:45:28;;;;;;;;;8.67;6.33;;;;;;;;5002831;28;45267;-75
2022/03/19 03:47:53;;;;;;;;;6.33;6.33;;;;;;;;5020830;28;45368;-75
2022/03/19 03:50:20;;;;;;;;;9.33;8.67;;;;;;;;5020331;28;45559;-75
2022/03/19 03:52:45;;;;;;;;;9.00;8.00;;;;;;;;5020306;28;45342;-74
2022/03/19 03:55:10;;;;;;;;;10.25;10.25;;;;;;;;5020347;28;45306;-75
2022/03/19 03:57:36;;;;;;;;;11.00;10.33;;;;;;;;5002364;28;45325;-74
2022/03/19 04:00:02;;;;;;;;;8.67;8.67;;;;;;;;5020302;28;45530;-76
2022/03/19 04:02:27;;;;;;;;;12.33;11.33;;;;;;;;5002144;28;47622;-75
2022/03/19 04:04:52;;;;;;;;;13.00;11.50;;;;;;;;5020214;28;45237;-75
2022/03/19 04:07:18;;;;;;;;;13.00;9.00;;;;;;;;5002499;28;45392;-75
2022/03/19 04:09:43;;;;;;;;;11.67;10.67;;;;;;;;5002208;28;46914;-75
2022/03/19 04:12:09;;;;;;;;;10.25;10.00;;;;;;;;5020035;28;45315;-75
2022/03/19 04:14:34;;;;;;;;;10.75;10.75;;;;;;;;5020196;28;45284;-75
2022/03/19 04:16:59;;;;;;;;;15.00;13.75;;;;;;;;5040177;28;45274;-75
2022/03/19 04:19:25;;;;;;;;;14.75;12.25;;;;;;;;5040021;28;45404;-75
2022/03/19 04:21:50;;;;;;;;;12.25;12.25;;;;;;;;5021833;28;47322;-75
2022/03/19 04:24:15;;;;;;;;;15.50;13.50;;;;;;;;5021892;28;45836;-75
2022/03/19 04:26:40;;;;;;;;;13.67;13.67;;;;;;;;5039181;28;45243;-75
2022/03/19 04:29:06;;;;;;;;;16.50;12.25;;;;;;;;5021595;28;45998;-75
2022/03/19 04:31:31;;;;;;;;;12.25;11.50;;;;;;;;5039715;28;46324;-75
2022/03/19 04:33:56;;;;;;;;;10.50;8.50;;;;;;;;5021856;28;45355;-75
2022/03/19 04:36:30;;;;;;;;;15.50;12.75;;;;;;;;5022083;28;45333;-75
2022/03/19 04:38:59;;;;;;;;;13.25;13.25;;;;;;;;5039818;28;45305;-75
2022/03/19 04:41:25;;;;;;;;;13.00;13.00;;;;;;;;5039618;28;45335;-75
2022/03/19 04:43:51;;;;;;;;;11.50;11.00;;;;;;;;5021545;28;45305;-75
2022/03/19 04:46:16;;;;;;;;;15.25;14.00;;;;;;;;5021730;28;45253;-75
2022/03/19 04:48:45;;;;;;;;;15.75;13.75;;;;;;;;5021565;28;46434;-75
2022/03/19 04:51:12;;;;;;;;;20.25;15.50;;;;;;;;5039519;28;45228;-75
2022/03/19 04:53:38;;;;;;;;;16.50;16.00;;;;;;;;5039392;28;45256;-75
2022/03/19 04:56:03;;;;;;;;;18.00;15.25;;;;;;;;5039712;28;45296;-76
2022/03/19 04:58:29;;;;;;;;;14.00;11.67;;;;;;;;5039042;28;45383;-75
2022/03/19 05:00:54;;;;;;;;;12.50;12.25;;;;;;;;5039444;28;46159;-75
2022/03/19 05:03:19;;;;;;;;;19.75;16.00;;;;;;;;5039347;28;45356;-75
2022/03/19 05:05:44;;;;;;;;;19.00;14.50;;;;;;;;5039673;28;45389;-75
2022/03/19 05:08:10;;;;;;;;;17.75;16.75;;;;;;;;5039331;28;45320;-75
2022/03/19 05:13:21;;;;;;;;;14.50;14.50;;;;;;;;5059190;28;45347;-75
2022/03/19 05:15:46;;;;;;;;;17.25;16.00;;;;;;;;5037949;28;45284;-75
2022/03/19 05:18:11;;;;;;;;;17.75;15.25;;;;;;;;5056749;28;45212;-75
2022/03/19 05:20:37;;;;;;;;;18.00;16.00;;;;;;;;5059209;28;45423;-76
2022/03/19 05:23:04;;;;;;;;;19.00;19.00;;;;;;;;5059092;28;45221;-76
2022/03/19 05:25:29;;;;;;;;;23.25;20.50;;;;;;;;5041295;28;45315;-76
2022/03/19 05:27:55;;;;;;;;;17.50;17.50;;;;;;;;5058793;28;45490;-75
2022/03/19 05:30:20;;;;;;;;;18.00;18.00;;;;;;;;5041112;28;48043;-75
2022/03/19 05:32:45;;;;;;;;;23.50;20.75;;;;;;;;5059154;28;45177;-75
2022/03/19 05:35:11;;;;;;;;;20.50;17.50;;;;;;;;5041179;28;45241;-76
2022/03/19 05:37:36;;;;;;;;;19.50;18.25;;;;;;;;5059276;28;45501;-75
2022/03/19 05:40:05;;;;;;;;;22.25;21.25;;;;;;;;5044282;28;46819;-75
2022/03/19 05:42:30;;;;;;;;;28.50;24.25;;;;;;;;5044241;28;45249;-76
2022/03/19 05:44:55;;;;;;;;;32.00;25.25;;;;;;;;5044347;28;45386;-75
2022/03/19 05:47:20;;;;;;;;;35.00;30.25;;;;;;;;5044454;28;46897;-76
2022/03/19 05:49:46;;;;;;;;;31.25;26.25;;;;;;;;5062419;28;45327;-75
2022/03/19 05:52:11;;;;;;;;;27.50;26.00;;;;;;;;5043981;28;45317;-75
2022/03/19 05:54:36;;;;;;;;;34.00;30.25;;;;;;;;5062551;28;45255;-75
2022/03/19 05:57:02;;;;;;;;;27.50;27.00;;;;;;;;5062102;28;45433;-75
2022/03/19 05:59:28;;;;;;;;;29.75;28.25;;;;;;;;5062338;28;45286;-75
2022/03/19 06:01:53;;;;;;;;;32.25;28.75;;;;;;;;5061488;28;45215;-75
2022/03/19 06:04:19;;;;;;;;;15.25;15.25;;;;;;;;5042327;28;45370;-76
2022/03/19 06:06:44;;;;;;;;;31.00;27.50;;;;;;;;5061727;28;45350;-75
2022/03/19 06:09:09;;;;;;;;;37.00;32.25;;;;;;;;5062050;28;45395;-74
2022/03/19 06:11:34;;;;;;;;;36.00;32.00;;;;;;;;5061921;28;45296;-75
2022/03/19 06:14:00;;;;;;;;;37.00;30.50;;;;;;;;5043943;28;45321;-76
2022/03/19 06:16:26;;;;;;;;;35.50;31.50;;;;;;;;5061699;28;45239;-77
2022/03/19 06:18:51;;;;;;;;;33.00;30.25;;;;;;;;5061856;28;46094;-77
2022/03/19 06:21:17;;;;;;;;;34.50;34.25;;;;;;;;5062110;28;45299;-76
2022/03/19 06:23:44;;;;;;;;;36.00;34.50;;;;;;;;5061937;28;45300;-76
2022/03/19 06:26:10;;;;;;;;;33.00;28.75;;;;;;;;5061870;28;45367;-77
2022/03/19 06:28:35;;;;;;;;;42.25;36.50;;;;;;;;5061118;28;46462;-78
2022/03/19 06:31:00;;;;;;;;;33.50;29.00;;;;;;;;5061972;28;45299;-76
2022/03/19 06:33:25;;;;;;;;;22.50;20.50;;;;;;;;5043871;28;45268;-76
2022/03/19 06:38:34;;;;;;;;;43.50;35.00;;;;;;;;5061378;28;45299;-75
2022/03/19 06:41:00;;;;;;;;;37.25;32.50;;;;;;;;5061648;28;45366;-76
2022/03/19 06:43:26;;;;;;;;;27.00;25.75;;;;;;;;5061589;28;45322;-76
2022/03/19 06:45:51;;;;;;;;;43.00;35.25;;;;;;;;5061560;28;45319;-76
2022/03/19 06:48:16;;;;;;;;;40.25;34.50;;;;;;;;5061356;28;46157;-76
2022/03/19 06:50:41;;;;;;;;;40.75;36.50;;;;;;;;5060707;28;45265;-76
2022/03/19 06:53:07;;;;;;;;;41.25;35.00;;;;;;;;5061613;28;45375;-75
2022/03/19 06:55:32;;;;;;;;;37.75;34.25;;;;;;;;5061422;28;45466;-76
2022/03/19 06:57:57;;;;;;;;;40.25;35.25;;;;;;;;5061309;28;45264;-76
2022/03/19 07:00:23;;;;;;;;;36.25;34.50;;;;;;;;5061363;28;45249;-74
2022/03/19 07:02:49;;;;;;;;;42.50;35.00;;;;;;;;5061394;28;45260;-74
2022/03/19 07:05:21;;;;;;;;;46.50;39.00;;;;;;;;5061452;28;45513;-74
2022/03/19 07:07:47;;;;;;;;;44.50;35.00;;;;;;;;5060906;28;46048;-75
2022/03/19 07:10:13;;;;;;;;;48.25;39.50;;;;;;;;5061062;28;45212;-75
2022/03/19 07:12:45;;;;;;;;;38.50;36.25;;;;;;;;5061181;28;45306;-76
2022/03/19 07:15:11;;;;;;;;;47.25;39.25;;;;;;;;5056418;28;45454;-75
2022/03/19 07:17:36;;;;;;;;;47.00;39.25;;;;;;;;5060951;28;46006;-75
2022/03/19 07:20:02;;;;;;;;;39.00;34.00;;;;;;;;5042905;28;45316;-75
2022/03/19 07:22:27;;;;;;;;;58.00;47.00;;;;;;;;5061033;28;45278;-75
2022/03/19 07:24:52;;;;;;;;;53.50;43.75;;;;;;;;5060915;28;45443;-76
2022/03/19 07:27:17;;;;;;;;;57.50;48.00;;;;;;;;5042558;28;48544;-75
2022/03/19 07:29:42;;;;;;;;;61.00;45.75;;;;;;;;5042844;28;45888;-75
2022/03/19 07:32:10;;;;;;;;;56.50;47.00;;;;;;;;5042914;28;45426;-77
2022/03/19 07:34:39;;;;;;;;;58.25;47.25;;;;;;;;5060649;28;46465;-75
2022/03/19 07:37:04;;;;;;;;;60.00;47.50;;;;;;;;5060616;28;46343;-74
2022/03/19 07:39:29;;;;;;;;;58.00;48.25;;;;;;;;5045843;28;45462;-76
2022/03/19 07:41:56;;;;;;;;;57.00;46.25;;;;;;;;5044836;28;45532;-76
2022/03/19 07:44:21;;;;;;;;;62.25;49.25;;;;;;;;5042593;28;45512;-76
2022/03/19 07:46:46;;;;;;;;;62.25;48.75;;;;;;;;5042827;28;45276;-77
2022/03/19 07:49:11;;;;;;;;;59.75;48.50;;;;;;;;5043788;28;45291;-76
2022/03/19 07:51:37;;;;;;;;;65.50;51.75;;;;;;;;5043645;28;45284;-76
2022/03/19 07:54:02;;;;;;;;;61.00;49.00;;;;;;;;5057116;28;45244;-76
2022/03/19 07:56:28;;;;;;;;;64.25;49.75;;;;;;;;5057907;28;46383;-76
2022/03/19 07:58:53;;;;;;;;;61.25;49.00;;;;;;;;5053979;28;45299;-76
2022/03/19 08:01:19;;;;;;;;;65.00;52.25;;;;;;;;5048829;28;45276;-76
2022/03/19 08:03:45;;;;;;;;;71.00;53.00;;;;;;;;5048362;28;46346;-75
2022/03/19 08:06:10;;;;;;;;;57.25;46.75;;;;;;;;5048506;28;45548;-77
2022/03/19 08:08:37;;;;;;;;;65.50;52.25;;;;;;;;5039149;28;45483;-76
2022/03/19 08:11:02;;;;;;;;;63.75;53.00;;;;;;;;5038600;28;45381;-76
2022/03/19 08:13:28;;;;;;;;;63.25;50.00;;;;;;;;5035795;28;45346;-76
2022/03/19 08:15:53;;;;;;;;;62.75;50.25;;;;;;;;5021895;28;48104;-75
2022/03/19 08:18:18;;;;;;;;;65.75;50.25;;;;;;;;5023664;28;45439;-75
2022/03/19 08:20:45;;;;;;;;;68.25;54.50;;;;;;;;5018586;28;45433;-76
2022/03/19 08:23:11;;;;;;;;;69.00;53.75;;;;;;;;5039425;28;45253;-75
2022/03/19 08:25:37;;;;;;;;;66.50;53.00;;;;;;;;5020477;28;48122;-76
2022/03/19 08:28:02;;;;;;;;;66.50;53.50;;;;;;;;5037867;28;45753;-75
2022/03/19 08:30:28;;;;;;;;;65.00;52.00;;;;;;;;5038392;28;45312;-77
2022/03/19 08:32:53;;;;;;;;;65.25;53.75;;;;;;;;5038929;28;45504;-76
2022/03/19 08:35:18;;;;;;;;;60.00;49.25;;;;;;;;5021265;28;47364;-76
2022/03/19 08:37:43;;;;;;;;;68.50;54.00;;;;;;;;5039522;28;45293;-75
2022/03/19 08:40:18;;;;;;;;;64.50;51.50;;;;;;;;5039592;28;45283;-75
2022/03/19 08:42:53;;;;;;;;;61.00;48.25;;;;;;;;5038383;28;45454;-75
2022/03/19 08:45:19;;;;;;;;;67.00;53.75;;;;;;;;5037644;28;45255;-75
2022/03/19 08:47:45;;;;;;;;;65.25;50.75;;;;;;;;5039179;28;45766;-75
2022/03/19 08:50:10;;;;;;;;;65.75;52.75;;;;;;;;5041319;28;45277;-79
2022/03/19 08:52:38;;;;;;;;;67.00;53.75;;;;;;;;5016859;28;46556;-79
2022/03/19 08:55:04;;;;;;;;;64.75;52.25;;;;;;;;5020558;28;47391;-79
2022/03/19 08:57:29;;;;;;;;;64.75;53.00;;;;;;;;5021629;28;45313;-79
2022/03/19 08:59:57;;;;;;;;;64.50;51.75;;;;;;;;5039543;28;45288;-79
2022/03/19 09:02:23;;;;;;;;;64.50;50.00;;;;;;;;5037967;28;45458;-79
2022/03/19 09:04:51;;;;;;;;;66.00;51.50;;;;;;;;5038323;28;46141;-79
2022/03/19 09:07:18;;;;;;;;;65.25;52.25;;;;;;;;5039520;28;45363;-79
2022/03/19 09:40:49;;;;;;;;;65.50;51.50;;;;;;;;4885910;29;45867;-81
2022/03/19 09:43:42;;;;;;;;;64.00;52.25;;;;;;;;4906586;28;45512;-79
2022/03/19 09:46:17;;;;;;;;;61.75;49.00;;;;;;;;4963783;28;45418;-79
2022/03/19 10:33:10;;;;;;;;;55.25;43.25;;;;;;;;4940580;28;45379;-82
2022/03/19 11:04:37;;;;;;;;;60.75;48.25;;;;;;;;4794449;29;45491;-81
2022/03/19 12:58:47;;;;;;;;;;;;;;;;;;;;;
2022/03/19 13:20:24;;;;;;;;;61.50;49.75;;;;;;;;4862762;29;45363;-78
2022/03/19 13:51:25;;;;;;;;;59.50;47.75;;;;;;;;5038525;28;45355;-80
2022/03/19 13:57:10;;;;;;;;;63.75;50.50;;;;;;;;4956040;28;45601;-79
2022/03/19 14:00:28;;;;;;;;;;;;;;;;;;;;;
2022/03/19 14:12:46;;;;;;;;;;;;;;;;;;;;;
2022/03/19 14:15:40;;;;;;;;;49.33;41.00;;;;;;;;4965079;28;75176;-83
2022/03/19 14:18:54;;;;;;;;;56.00;45.25;;;;;;;;4979740;28;45562;-80
2022/03/19 14:24:24;;;;;;;;;52.50;44.00;;;;;;;;4968762;28;46166;-82
2022/03/19 14:27:00;;;;;;;;;50.50;42.00;;;;;;;;4962730;28;47835;-81
2022/03/19 14:30:00;;;;;;;;;55.00;44.67;;;;;;;;4991222;28;45536;-80
2022/03/19 14:33:18;;;;;;;;;50.50;41.50;;;;;;;;4984601;28;45337;-80
2022/03/19 14:35:48;;;;;;;;;53.25;42.50;;;;;;;;5011803;28;45601;-78
2022/03/19 14:38:16;;;;;;;;;55.75;45.75;;;;;;;;5015348;28;45862;-81
2022/03/19 14:47:37;;;;;;;;;;;;;;;;;;;;;
2022/03/19 14:56:28;;;;;;;;;51.00;42.33;;;;;;;;5023386;28;45286;-81
2022/03/19 14:59:04;;;;;;;;;43.00;36.00;;;;;;;;5044054;28;46400;-81
2022/03/19 15:02:19;;;;;;;;;51.00;42.00;;;;;;;;5052632;28;45884;-82
2022/03/19 15:04:45;;;;;;;;;52.00;42.33;;;;;;;;4994634;28;45458;-80
2022/03/19 15:07:10;;;;;;;;;48.50;41.00;;;;;;;;5042451;28;45278;-80
2022/03/19 15:09:35;;;;;;;;;48.33;40.00;;;;;;;;5024084;28;46188;-78
2022/03/19 15:12:04;;;;;;;;;51.00;41.00;;;;;;;;5024734;28;45466;-81
2022/03/19 15:14:29;;;;;;;;;51.00;40.25;;;;;;;;5035382;28;45501;-79
2022/03/19 15:17:18;;;;;;;;;47.67;39.33;;;;;;;;5029651;28;45417;-79
2022/03/19 15:23:09;;;;;;;;;50.33;40.67;;;;;;;;4959542;28;46386;-79
2022/03/19 15:25:37;;;;;;;;;42.67;35.67;;;;;;;;4957330;28;45643;-79
2022/03/19 15:28:12;;;;;;;;;42.00;34.00;;;;;;;;4991411;28;45367;-81
2022/03/19 15:44:19;;;;;;;;;44.00;36.67;;;;;;;;4842423;29;45494;-79
2022/03/19 15:47:13;;;;;;;;;34.67;31.67;;;;;;;;4842946;29;46253;-78
2022/03/19 15:49:38;;;;;;;;;41.67;34.00;;;;;;;;4825329;29;45736;-80
2022/03/19 15:52:04;;;;;;;;;40.00;32.67;;;;;;;;4882447;29;46006;-80
2022/03/19 15:54:29;;;;;;;;;40.00;34.00;;;;;;;;4977556;28;45533;-80
2022/03/19 15:56:54;;;;;;;;;38.33;33.67;;;;;;;;5021307;28;47396;-78
2022/03/19 15:59:20;;;;;;;;;38.67;32.33;;;;;;;;5040418;28;45323;-79
2022/03/19 16:01:45;;;;;;;;;34.33;31.00;;;;;;;;5044974;28;45593;-79
2022/03/19 16:04:10;;;;;;;;;28.67;27.33;;;;;;;;5053661;28;46447;-80
2022/03/19 16:06:35;;;;;;;;;33.00;29.33;;;;;;;;5060619;28;45303;-80
2022/03/19 16:09:00;;;;;;;;;36.67;31.67;;;;;;;;5059234;28;45343;-79
2022/03/19 16:11:26;;;;;;;;;44.00;36.67;;;;;;;;5059879;28;45274;-79
2022/03/19 16:13:51;;;;;;;;;46.33;37.67;;;;;;;;5041560;28;46605;-79
2022/03/19 16:16:16;;;;;;;;;45.00;37.00;;;;;;;;5041755;28;48107;-79
2022/03/19 16:18:43;;;;;;;;;49.00;40.00;;;;;;;;5060369;28;45369;-79
2022/03/19 16:21:08;;;;;;;;;40.67;34.67;;;;;;;;5042204;28;45249;-80
2022/03/19 16:23:33;;;;;;;;;38.67;33.00;;;;;;;;5037539;28;46222;-79
2022/03/19 16:25:58;;;;;;;;;45.67;37.00;;;;;;;;5059680;28;45510;-79
2022/03/19 16:28:24;;;;;;;;;46.33;39.00;;;;;;;;5059651;28;45430;-79
2022/03/19 16:30:49;;;;;;;;;44.33;37.33;;;;;;;;5060164;28;45260;-79
2022/03/19 16:33:14;;;;;;;;;40.67;33.33;;;;;;;;5059889;28;45592;-79
2022/03/19 16:35:39;;;;;;;;;42.33;36.33;;;;;;;;5058424;28;46395;-79
2022/03/19 16:38:04;;;;;;;;;41.67;34.00;;;;;;;;5040340;28;46009;-80
2022/03/19 16:40:32;;;;;;;;;38.00;33.33;;;;;;;;5042927;28;45455;-81
2022/03/19 16:42:57;;;;;;;;;39.67;34.00;;;;;;;;5074212;28;45525;-76
2022/03/19 16:45:22;;;;;;;;;37.33;32.00;;;;;;;;5071845;28;46103;-76
2022/03/19 16:47:47;;;;;;;;;36.67;32.33;;;;;;;;5059324;28;45403;-75
2022/03/19 16:50:12;;;;;;;;;41.00;34.67;;;;;;;;5059433;28;45248;-77
2022/03/19 16:52:38;;;;;;;;;38.00;31.00;;;;;;;;5059358;28;45458;-76
2022/03/19 16:55:05;;;;;;;;;35.00;32.00;;;;;;;;5059702;28;46002;-76
2022/03/19 16:57:31;;;;;;;;;37.33;33.00;;;;;;;;5042414;28;45769;-77
2022/03/19 16:59:56;;;;;;;;;36.67;30.67;;;;;;;;5039844;28;45479;-79
2022/03/19 17:02:21;;;;;;;;;40.33;32.67;;;;;;;;5035177;28;46076;-75
2022/03/19 17:04:46;;;;;;;;;41.67;33.33;;;;;;;;5049829;28;46314;-77
2022/03/19 17:07:12;;;;;;;;;35.33;31.67;;;;;;;;5057564;28;45354;-75
2022/03/19 17:09:37;;;;;;;;;30.00;29.33;;;;;;;;5055377;28;45578;-76
2022/03/19 17:12:02;;;;;;;;;34.00;29.33;;;;;;;;5037874;28;46469;-75
2022/03/19 17:14:27;;;;;;;;;34.33;28.67;;;;;;;;5058443;28;45315;-75
2022/03/19 17:16:53;;;;;;;;;34.33;30.33;;;;;;;;5058603;28;45343;-75
2022/03/19 17:19:18;;;;;;;;;28.67;28.00;;;;;;;;5040088;28;45284;-75
2022/03/19 17:21:44;;;;;;;;;29.67;28.00;;;;;;;;5057894;28;45361;-75
2022/03/19 17:24:09;;;;;;;;;35.67;31.67;;;;;;;;5058494;28;46541;-75
2022/03/19 17:26:34;;;;;;;;;40.00;32.33;;;;;;;;5058376;28;45289;-75
2022/03/19 17:29:00;;;;;;;;;32.67;29.00;;;;;;;;5057911;28;45474;-75
2022/03/19 17:31:25;;;;;;;;;27.33;23.67;;;;;;;;5063395;28;45280;-75
2022/03/19 17:33:50;;;;;;;;;24.67;23.67;;;;;;;;5034443;28;47245;-74
2022/03/19 17:36:15;;;;;;;;;25.33;23.33;;;;;;;;5057642;28;45181;-75
2022/03/19 17:38:41;;;;;;;;;27.00;24.33;;;;;;;;5044280;28;45485;-75
2022/03/19 17:41:07;;;;;;;;;26.67;26.67;;;;;;;;5044054;28;46179;-75
2022/03/19 17:43:32;;;;;;;;;24.33;23.67;;;;;;;;5061534;28;45457;-75
2022/03/19 17:45:57;;;;;;;;;25.67;25.67;;;;;;;;5043404;28;45389;-73
2022/03/19 17:48:22;;;;;;;;;25.67;23.67;;;;;;;;5061640;28;45276;-75
2022/03/19 17:50:51;;;;;;;;;29.00;25.67;;;;;;;;5044039;28;47364;-75
2022/03/19 17:53:17;;;;;;;;;23.00;22.67;;;;;;;;5057812;28;45415;-75
2022/03/19 17:55:44;;;;;;;;;25.00;23.00;;;;;;;;5041969;28;45283;-75
2022/03/19 17:58:10;;;;;;;;;16.00;15.00;;;;;;;;5043693;28;45378;-79
2022/03/19 18:00:35;;;;;;;;;25.00;23.67;;;;;;;;5042515;28;47100;-78
2022/03/19 18:03:00;;;;;;;;;19.33;19.00;;;;;;;;5031584;28;47319;-77
2022/03/19 18:05:26;;;;;;;;;26.67;24.00;;;;;;;;5042150;28;45896;-78
2022/03/19 18:07:51;;;;;;;;;27.00;22.33;;;;;;;;5038968;28;45315;-78
2022/03/19 18:10:16;;;;;;;;;23.00;23.00;;;;;;;;5044704;28;45754;-74
2022/03/19 18:12:42;;;;;;;;;21.00;19.33;;;;;;;;5033955;28;46528;-74
2022/03/19 18:15:08;;;;;;;;;22.33;20.67;;;;;;;;5027711;28;45623;-74
2022/03/19 18:17:36;;;;;;;;;24.67;22.67;;;;;;;;5027258;28;45541;-73
2022/03/19 18:20:01;;;;;;;;;15.00;14.33;;;;;;;;5060653;28;45430;-73
2022/03/19 18:22:26;;;;;;;;;20.67;19.00;;;;;;;;5061731;28;45542;-74
2022/03/19 18:24:52;;;;;;;;;23.67;21.67;;;;;;;;5060415;28;45753;-74
2022/03/19 18:27:17;;;;;;;;;23.00;21.00;;;;;;;;5055664;28;45371;-73
2022/03/19 18:29:42;;;;;;;;;23.00;22.00;;;;;;;;5060560;28;45536;-75
2022/03/19 18:32:07;;;;;;;;;20.33;19.00;;;;;;;;5040521;28;46883;-74
2022/03/19 18:34:32;;;;;;;;;25.67;24.00;;;;;;;;5060991;28;45352;-75
2022/03/19 18:36:58;;;;;;;;;26.33;25.67;;;;;;;;5061264;28;45324;-75
2022/03/19 18:39:23;;;;;;;;;24.33;23.00;;;;;;;;5042568;28;46102;-74
2022/03/19 18:41:48;;;;;;;;;25.00;24.67;;;;;;;;5042510;28;47352;-76
2022/03/19 18:44:14;;;;;;;;;21.33;20.67;;;;;;;;5060803;28;45266;-77
2022/03/19 18:46:39;;;;;;;;;15.33;15.33;;;;;;;;5041557;28;45261;-76
2022/03/19 18:49:05;;;;;;;;;27.67;25.00;;;;;;;;5061619;28;45345;-75
2022/03/19 18:51:30;;;;;;;;;24.33;23.67;;;;;;;;5043215;28;46997;-76
2022/03/19 18:53:55;;;;;;;;;25.67;25.67;;;;;;;;5061666;28;45291;-76
2022/03/19 18:56:21;;;;;;;;;23.67;23.67;;;;;;;;5061473;28;45252;-76
2022/03/19 18:58:46;;;;;;;;;23.33;21.00;;;;;;;;5061510;28;45431;-75
2022/03/19 19:01:11;;;;;;;;;24.00;21.67;;;;;;;;5043316;28;47482;-76
2022/03/19 19:03:37;;;;;;;;;20.00;20.00;;;;;;;;5043452;28;46146;-76
2022/03/19 19:06:02;;;;;;;;;25.67;23.67;;;;;;;;5061673;28;45402;-76
2022/03/19 19:08:27;;;;;;;;;25.67;25.00;;;;;;;;5042887;28;46210;-77
2022/03/19 19:10:53;;;;;;;;;27.33;25.33;;;;;;;;5043166;28;48313;-76
2022/03/19 19:13:19;;;;;;;;;24.33;24.33;;;;;;;;5061093;28;45331;-76
2022/03/19 19:15:44;;;;;;;;;27.00;25.67;;;;;;;;5033229;28;45392;-75
2022/03/19 19:18:10;;;;;;;;;23.67;23.00;;;;;;;;5040962;28;45356;-76
2022/03/19 19:20:38;;;;;;;;;21.67;21.00;;;;;;;;5040954;28;45521;-76
2022/03/19 19:23:03;;;;;;;;;21.00;21.00;;;;;;;;5040856;28;45299;-76
2022/03/19 19:25:31;;;;;;;;;24.67;22.67;;;;;;;;5022867;28;45232;-76
2022/03/19 19:27:57;;;;;;;;;20.67;19.00;;;;;;;;5040457;28;45423;-76
2022/03/19 19:30:22;;;;;;;;;26.67;24.33;;;;;;;;5040737;28;46115;-76
2022/03/19 19:32:47;;;;;;;;;24.33;23.33;;;;;;;;5022903;28;45241;-76
2022/03/19 19:35:12;;;;;;;;;25.33;25.00;;;;;;;;5040999;28;45288;-76
2022/03/19 19:37:37;;;;;;;;;27.00;24.67;;;;;;;;5040473;28;45565;-76
2022/03/19 19:40:03;;;;;;;;;30.00;27.67;;;;;;;;5022785;28;46955;-76
2022/03/19 19:42:28;;;;;;;;;27.67;26.33;;;;;;;;5040451;28;45294;-76